Accueil
METAR-TAF:

METAR-TAF

Aéroports :

Locarno, Suisse

latitude: 46-09-55N, longitude: 8-52-40E, altitude: 198 m

Observation

Le bulletin a été fait il y a 58 minutes, à 00:50 UTC
Vent calme
Température 20°C
Humidité 88%
Pression 1016 hPa
Visibilité 10 km ou plus

METAR: LSZL 240050Z AUTO 00000KT 9999NDV NCD 20/18 Q1016 RMK

Heure: 03:48 (01:48 UTC)

Prévision

Le bulletin a été fait il y a 8 heures et 23 minutes, à 17:25 UTC
Prévision valable du 23 à 18 UTC au 24 à 03 UTC
Vent 6 kt de ouest
Visibilité 10 km ou plus
pas de nuages en-dessous de 1500 mètres et pas de cumulonimbus.
Probabilité 30% :
Temporairement
du 23 à 18 UTC au 23 à 20 UTC
Visibilité 10 km ou plus
Nuages épars à une hauteur de 6000 ft, Cumulus congestus.
averses de pluie

TAF: LSZL 231725Z 2318/2403 26006KT CAVOK PROB30 TEMPO 2318/2320 9999 SHRA SCT060TCU

Observations et prévisions météorologiques de plus de 4000 aéroports (messages METAR et TAF).

Les stations disponibles sont représentées par des disques jaunes et rouges sur la carte.

Passer la souris dessus pour voir le nom de la station.

Cliquer dessus pour voir les observations et prévisions météorologiques.

Pour changer de carte: cliquez sur les boutons verts avec une croix noire pour zoomer, sur le bouton vert avec un tiret pour effectuer un zoom arrière, ou sur les flèches vertes pour les cartes adjacentes.


METAR-TAF: